Time;durP1;ratioP1;P1;durP2;ratioP2;P2;SDS_P1;SDS_P2;PMS_P1;PMS_P2;Temp;Humidity;BMP_temperature;BMP_pressure;BME280_temperature;BME280_humidity;BME280_pressure;Samples;Min_cycle;Max_cycle;Signal;HPM_P1;HPM_P2
2023/05/24 00:01:25;;;;;;;11.40;9.20;;;;;;;19.33;62.11;100223.63;109082;1254;61355;-61
2023/05/24 00:03:52;;;;;;;14.40;9.70;;;;;;;19.28;62.17;100218.17;105586;1254;62864;-62
2023/05/24 00:06:19;;;;;;;13.70;9.70;;;;;;;19.25;62.29;100220.32;105615;1257;59666;-62
2023/05/24 00:08:46;;;;;;;11.40;8.80;;;;;;;19.19;62.30;100220.31;106497;1253;59627;-60
2023/05/24 00:11:13;;;;;;;12.70;8.70;;;;;;;19.17;62.38;100220.82;106391;1253;64955;-61
2023/05/24 00:13:40;;;;;;;10.70;8.10;;;;;;;19.16;62.34;100225.35;105406;1254;62231;-62
2023/05/24 00:16:07;;;;;;;10.80;8.00;;;;;;;19.15;62.38;100227.31;105448;1257;63974;-62
2023/05/24 00:18:34;;;;;;;10.70;8.30;;;;;;;19.14;62.43;100232.83;105420;1256;59687;-61
2023/05/24 00:21:00;;;;;;;10.10;8.60;;;;;;;19.10;62.54;100237.17;105454;1253;59760;-62
2023/05/24 00:23:27;;;;;;;13.30;8.70;;;;;;;19.06;62.42;100238.75;109059;1254;65588;-63
2023/05/24 00:25:54;;;;;;;11.00;9.60;;;;;;;19.00;62.43;100236.48;109090;1254;60384;-63
2023/05/24 00:28:20;;;;;;;12.50;9.10;;;;;;;18.92;62.43;100238.37;105568;1257;63911;-63
2023/05/24 00:30:47;;;;;;;12.80;9.60;;;;;;;18.84;62.74;100238.23;108615;1254;57773;-61
2023/05/24 00:33:15;;;;;;;9.70;8.10;;;;;;;18.82;63.03;100236.78;105242;1257;59683;-61
2023/05/24 00:35:42;;;;;;;12.80;9.30;;;;;;;18.81;63.14;100234.09;106299;1256;64463;-61
2023/05/24 00:38:08;;;;;;;14.10;9.60;;;;;;;18.81;63.28;100234.59;105116;1254;61860;-61
2023/05/24 00:40:35;;;;;;;13.70;9.00;;;;;;;18.81;63.44;100234.09;105586;1260;63856;-61
2023/05/24 00:43:02;;;;;;;12.30;9.40;;;;;;;18.78;63.68;100231.20;107367;1258;60268;-61
2023/05/24 00:45:28;;;;;;;11.90;8.10;;;;;;;18.75;63.85;100230.08;105265;1253;59627;-61
2023/05/24 00:47:57;;;;;;;12.10;8.80;;;;;;;18.73;63.59;100230.08;105161;1260;64525;-61
2023/05/24 00:50:24;;;;;;;11.70;8.50;;;;;;;18.69;63.57;100235.75;105970;1253;61713;-61
2023/05/24 00:52:51;;;;;;;11.10;8.10;;;;;;;18.67;63.46;100242.33;108925;1253;64349;-63
2023/05/24 00:55:19;;;;;;;11.40;8.20;;;;;;;18.70;63.53;100244.10;106061;1258;61978;-60
2023/05/24 00:57:46;;;;;;;13.20;8.50;;;;;;;18.73;63.63;100239.21;108921;1254;57691;-62
2023/05/24 01:00:14;;;;;;;15.70;8.90;;;;;;;18.71;63.69;100239.84;105486;1257;63197;-61
2023/05/24 01:02:42;;;;;;;10.20;8.20;;;;;;;18.75;63.51;100241.84;105284;1254;61464;-63
2023/05/24 01:05:12;;;;;;;14.50;8.40;;;;;;;18.77;63.39;100246.35;107157;1258;63907;-61
2023/05/24 01:07:55;;;;;;;11.70;8.00;;;;;;;18.66;63.54;100247.27;105330;1254;59719;-63
2023/05/24 01:10:47;;;;;;;9.90;7.10;;;;;;;18.61;63.65;100249.67;109015;1254;59621;-61
2023/05/24 01:13:34;;;;;;;10.70;7.20;;;;;;;18.62;63.44;100246.38;107131;1254;65985;-61
2023/05/24 01:16:16;;;;;;;13.50;7.40;;;;;;;18.66;63.12;100243.04;104866;1257;61597;-61
2023/05/24 01:18:53;;;;;;;9.20;6.40;;;;;;;18.66;62.82;100239.85;105367;1257;72996;-61
2023/05/24 01:21:47;;;;;;;11.70;7.20;;;;;;;18.64;62.84;100243.95;106022;1257;59605;-61
2023/05/24 01:24:32;;;;;;;12.70;6.60;;;;;;;18.63;62.63;100247.98;106138;1257;59689;-63
2023/05/24 01:27:01;;;;;;;12.90;7.40;;;;;;;18.60;62.25;100248.18;106481;1259;64764;-61
2023/05/24 01:29:28;;;;;;;11.80;7.20;;;;;;;18.56;62.05;100249.22;105138;1256;61687;-61
2023/05/24 01:31:57;;;;;;;12.90;7.30;;;;;;;18.58;61.95;100254.39;107933;1257;63878;-62
2023/05/24 01:34:25;;;;;;;10.70;7.20;;;;;;;18.62;61.51;100257.73;105020;1262;60791;-62
2023/05/24 01:36:51;;;;;;;11.30;6.70;;;;;;;18.59;61.44;100255.91;105187;1257;59910;-62
2023/05/24 01:39:19;;;;;;;9.40;6.60;;;;;;;18.55;61.60;100254.48;105125;1260;64387;-60
2023/05/24 01:41:53;;;;;;;10.80;6.40;;;;;;;18.51;61.74;100249.39;105254;1263;62300;-61
2023/05/24 01:44:41;;;;;;;10.40;6.90;;;;;;;18.47;61.84;100253.20;105181;1257;64228;-63
2023/05/24 01:47:19;;;;;;;9.40;5.80;;;;;;;18.42;62.05;100258.11;105680;1253;59285;-61
2023/05/24 01:49:50;;;;;;;7.70;6.10;;;;;;;18.42;62.30;100256.31;105477;1254;60358;-63
2023/05/24 01:52:19;;;;;;;7.10;6.00;;;;;;;18.44;62.23;100255.90;105647;1257;63523;-60
2023/05/24 01:54:50;;;;;;;10.50;6.30;;;;;;;18.45;62.24;100254.92;109090;1254;60442;-62
2023/05/24 01:57:19;;;;;;;10.00;6.30;;;;;;;18.42;62.47;100256.46;105494;1254;63856;-60
2023/05/24 01:59:46;;;;;;;8.70;6.30;;;;;;;18.42;62.75;100256.48;109015;1257;58092;-60
2023/05/24 02:02:13;;;;;;;11.40;6.70;;;;;;;18.43;62.84;100259.23;106050;1254;59628;-62
2023/05/24 02:04:40;;;;;;;8.10;5.90;;;;;;;18.42;62.96;100257.58;104966;1258;65376;-59
2023/05/24 02:07:07;;;;;;;11.50;6.40;;;;;;;18.44;62.74;100256.80;105362;1254;60497;-60
2023/05/24 02:09:34;;;;;;;10.30;6.00;;;;;;;18.46;62.59;100262.38;106502;1254;60131;-60
2023/05/24 02:12:01;;;;;;;8.60;6.00;;;;;;;18.47;62.58;100262.11;105150;1259;59666;-59
2023/05/24 02:15:19;;;;;;;13.30;6.50;;;;;;;18.47;62.70;100262.13;105385;1254;59746;-60
2023/05/24 02:17:46;;;;;;;11.00;6.70;;;;;;;18.43;62.76;100262.56;105455;1254;64419;-61
2023/05/24 02:20:16;;;;;;;10.50;6.50;;;;;;;18.40;62.83;100265.61;105610;1254;61720;-61
2023/05/24 02:22:43;;;;;;;9.80;6.40;;;;;;;18.36;62.88;100267.57;105256;1254;65140;-60
2023/05/24 02:25:09;;;;;;;8.90;6.00;;;;;;;18.38;62.81;100269.67;105421;1253;59638;-61
2023/05/24 02:27:37;;;;;;;8.50;5.60;;;;;;;18.40;62.97;100271.80;105851;1254;61286;-60
2023/05/24 02:30:05;;;;;;;10.10;6.20;;;;;;;18.43;63.08;100270.92;109095;1253;64668;-60
2023/05/24 02:32:33;;;;;;;10.30;7.40;;;;;;;18.46;63.25;100271.30;108998;1253;61555;-61
2023/05/24 02:35:00;;;;;;;9.50;7.20;;;;;;;18.47;63.53;100272.66;106768;1256;64042;-60
2023/05/24 02:37:27;;;;;;;11.90;8.10;;;;;;;18.46;63.86;100275.36;105371;1254;59648;-61
2023/05/24 02:39:53;;;;;;;11.20;7.80;;;;;;;18.44;63.92;100277.71;109052;1254;58961;-61
2023/05/24 02:42:20;;;;;;;13.10;7.70;;;;;;;18.39;63.92;100273.67;106190;1259;64429;-61
2023/05/24 02:44:48;;;;;;;13.50;8.20;;;;;;;18.37;64.07;100274.40;105419;1257;63054;-61
2023/05/24 02:47:15;;;;;;;12.70;8.60;;;;;;;18.40;64.08;100276.27;105239;1259;62899;-63
2023/05/24 02:49:42;;;;;;;11.40;8.70;;;;;;;18.43;64.12;100275.42;105318;1254;59628;-61
2023/05/24 02:52:08;;;;;;;9.50;7.80;;;;;;;18.45;64.13;100276.27;106693;1253;59634;-61
2023/05/24 02:54:35;;;;;;;10.00;8.20;;;;;;;18.54;64.18;100276.52;106031;1257;64280;-61
2023/05/24 02:57:05;;;;;;;12.00;9.30;;;;;;;18.62;63.93;100277.69;105355;1259;61680;-61
2023/05/24 02:59:32;;;;;;;11.30;9.30;;;;;;;18.59;63.90;100281.73;105830;1254;64060;-61
2023/05/24 03:01:59;;;;;;;10.30;8.40;;;;;;;18.52;63.60;100283.00;109106;1254;57767;-62
2023/05/24 03:04:26;;;;;;;12.50;8.20;;;;;;;18.46;63.40;100279.86;106171;1257;59746;-61
2023/05/24 03:14:46;;;;;;;12.40;9.20;;;;;;;18.15;63.90;100276.42;105655;1257;62649;-60
2023/05/24 03:17:14;;;;;;;10.80;9.40;;;;;;;18.08;63.91;100279.64;105367;1254;59755;-61
2023/05/24 03:19:40;;;;;;;13.40;8.60;;;;;;;18.08;63.75;100280.23;105569;1257;59695;-60
2023/05/24 03:22:39;;;;;;;13.60;8.80;;;;;;;18.01;63.88;100281.68;106104;1257;64494;-60
2023/05/24 03:25:07;;;;;;;12.90;8.50;;;;;;;18.00;63.92;100282.52;105826;1254;61509;-61
2023/05/24 03:27:35;;;;;;;10.80;8.20;;;;;;;18.01;63.98;100286.67;108971;1254;72649;-61
2023/05/24 03:30:02;;;;;;;11.30;9.00;;;;;;;18.01;64.31;100289.84;109087;1254;58062;-61
2023/05/24 03:32:30;;;;;;;12.80;9.80;;;;;;;18.01;64.15;100287.23;108980;1254;58044;-61
2023/05/24 03:34:58;;;;;;;11.80;9.90;;;;;;;17.96;64.27;100290.63;108971;1254;63235;-62
2023/05/24 03:37:25;;;;;;;12.90;9.50;;;;;;;17.93;64.34;100296.13;109055;1254;62394;-61
2023/05/24 03:39:52;;;;;;;13.60;8.70;;;;;;;17.94;64.55;100297.55;106189;1254;66722;-60
2023/05/24 03:42:42;;;;;;;12.90;8.60;;;;;;;18.05;64.60;100301.17;105278;1260;59673;-60
2023/05/24 03:45:09;;;;;;;12.80;8.70;;;;;;;18.16;64.72;100301.02;105412;1254;59888;-62
2023/05/24 03:47:37;;;;;;;14.80;8.60;;;;;;;18.26;64.55;100301.50;108222;1258;63217;-60
2023/05/24 03:50:20;;;;;;;10.40;8.20;;;;;;;18.35;64.20;100302.05;107307;1254;61553;-61
2023/05/24 03:52:47;;;;;;;10.80;8.00;;;;;;;18.41;64.00;100300.80;105058;1260;64893;-61
2023/05/24 03:55:14;;;;;;;12.20;8.60;;;;;;;18.46;63.76;100295.64;105398;1259;61004;-60
2023/05/24 03:57:45;;;;;;;11.90;8.20;;;;;;;18.50;63.49;100299.83;106577;1254;60491;-61
2023/05/24 04:00:12;;;;;;;11.90;8.20;;;;;;;18.57;63.35;100299.83;105226;1260;65495;-61
2023/05/24 04:02:46;;;;;;;11.50;8.50;;;;;;;18.66;63.23;100301.85;106380;1254;61871;-61
2023/05/24 04:05:13;;;;;;;16.50;10.30;;;;;;;18.72;63.30;100301.36;109045;1253;62842;-62
2023/05/24 04:07:41;;;;;;;12.30;8.90;;;;;;;18.75;63.31;100299.94;106518;1254;60476;-61
2023/05/24 04:10:08;;;;;;;11.40;8.80;;;;;;;18.78;62.95;100299.38;106465;1254;60434;-61
2023/05/24 04:12:36;;;;;;;11.90;8.20;;;;;;;18.81;62.09;100301.59;106016;1257;65500;-60
2023/05/24 04:15:06;;;;;;;10.30;7.70;;;;;;;18.81;61.42;100302.16;106518;1258;60463;-61
2023/05/24 04:17:33;;;;;;;12.20;7.70;;;;;;;18.83;61.30;100301.37;106875;1257;63717;-60
2023/05/24 04:20:01;;;;;;;11.60;7.00;;;;;;;18.88;60.84;100299.30;106010;1254;60430;-60
2023/05/24 04:22:29;;;;;;;11.50;7.30;;;;;;;18.93;60.75;100296.82;105530;1257;60459;-60
2023/05/24 04:24:56;;;;;;;10.00;7.70;;;;;;;18.97;60.46;100297.80;108979;1254;73278;-60
2023/05/24 04:27:24;;;;;;;11.20;7.40;;;;;;;19.01;60.16;100301.42;108372;1254;61833;-60
2023/05/24 04:29:52;;;;;;;9.80;7.90;;;;;;;19.03;59.88;100302.54;109074;1252;62506;-61
2023/05/24 04:32:18;;;;;;;10.90;7.40;;;;;;;19.06;59.45;100301.85;105643;1257;60402;-60
2023/05/24 04:34:46;;;;;;;9.50;7.10;;;;;;;19.08;59.24;100302.52;105313;1255;60390;-60
2023/05/24 04:37:12;;;;;;;9.80;6.90;;;;;;;19.13;58.92;100308.11;105429;1254;74291;-61
2023/05/24 04:39:39;;;;;;;15.90;8.20;;;;;;;19.20;59.02;100306.63;105969;1254;61739;-61
2023/05/24 04:42:12;;;;;;;13.20;9.70;;;;;;;19.27;59.31;100306.83;105786;1254;64051;-63
2023/05/24 04:44:39;;;;;;;11.40;8.50;;;;;;;19.34;59.42;100310.08;109037;1257;59198;-61
2023/05/24 04:47:07;;;;;;;10.50;7.90;;;;;;;19.40;59.52;100308.65;109120;1254;58275;-61
2023/05/24 04:49:35;;;;;;;13.60;8.10;;;;;;;19.46;59.50;100310.79;106341;1254;64923;-61
2023/05/24 04:52:02;;;;;;;9.70;7.10;;;;;;;19.52;59.51;100312.84;104698;1259;60802;-61
2023/05/24 04:54:29;;;;;;;8.70;7.10;;;;;;;19.58;59.57;100311.91;106325;1255;63861;-59
2023/05/24 04:56:56;;;;;;;12.90;6.80;;;;;;;19.65;59.34;100308.64;104973;1257;60447;-62
2023/05/24 04:59:23;;;;;;;11.10;7.60;;;;;;;19.68;59.36;100309.34;105830;1253;60562;-59
2023/05/24 05:01:50;;;;;;;9.00;7.30;;;;;;;19.67;59.19;100311.17;105545;1253;65009;-61
2023/05/24 05:04:17;;;;;;;9.70;6.30;;;;;;;19.67;59.01;100318.52;109117;1255;60310;-62
2023/05/24 05:06:44;;;;;;;10.40;6.90;;;;;;;19.70;58.89;100320.32;109064;1252;64056;-62
2023/05/24 05:09:13;;;;;;;9.80;6.90;;;;;;;19.71;58.97;100318.98;107384;1254;60451;-59
2023/05/24 05:11:40;;;;;;;8.90;7.20;;;;;;;19.70;58.70;100323.27;105842;1254;60501;-59
2023/05/24 05:14:10;;;;;;;9.30;6.70;;;;;;;19.67;58.40;100325.79;107450;1257;64953;-60
2023/05/24 05:16:38;;;;;;;10.30;6.90;;;;;;;19.70;58.47;100319.27;105584;1256;71176;-63
2023/05/24 05:19:05;;;;;;;10.60;7.10;;;;;;;19.76;58.70;100325.73;106031;1256;63714;-61
2023/05/24 05:21:33;;;;;;;10.80;6.50;;;;;;;19.83;58.96;100325.23;105507;1252;60466;-61
2023/05/24 05:24:00;;;;;;;11.00;6.60;;;;;;;19.91;59.02;100322.98;106258;1256;60345;-61
2023/05/24 05:26:27;;;;;;;12.30;7.90;;;;;;;19.99;58.79;100321.20;109168;1254;65176;-61
2023/05/24 05:28:53;;;;;;;10.20;7.10;;;;;;;20.10;58.66;100321.25;106403;1254;61470;-59
2023/05/24 05:31:21;;;;;;;12.30;7.20;;;;;;;20.17;58.47;100322.77;107330;1254;64046;-61
2023/05/24 05:33:48;;;;;;;12.00;8.00;;;;;;;20.24;58.22;100321.78;105592;1254;60535;-60
2023/05/24 05:36:15;;;;;;;9.50;6.60;;;;;;;20.35;57.62;100326.67;105660;1254;60548;-59
2023/05/24 05:38:42;;;;;;;9.10;5.10;;;;;;;20.47;57.30;100327.85;105611;1257;65937;-60
2023/05/24 05:41:09;;;;;;;8.30;5.60;;;;;;;20.56;56.43;100332.34;105885;1257;61886;-58
2023/05/24 05:43:37;;;;;;;10.90;5.70;;;;;;;20.62;55.92;100334.30;105572;1257;64476;-59
2023/05/24 05:46:04;;;;;;;8.90;6.30;;;;;;;20.63;55.32;100333.83;105479;1257;60555;-60
2023/05/24 05:48:31;;;;;;;11.10;7.40;;;;;;;20.64;55.29;100334.63;106748;1254;61771;-60
2023/05/24 05:50:58;;;;;;;10.30;6.60;;;;;;;20.69;55.87;100337.60;105476;1257;64993;-60
2023/05/24 05:53:24;;;;;;;12.20;6.60;;;;;;;20.71;56.08;100338.40;105504;1254;64145;-61
2023/05/24 05:55:51;;;;;;;9.70;6.80;;;;;;;20.72;56.10;100344.59;106798;1254;63975;-60
2023/05/24 05:58:18;;;;;;;9.10;5.90;;;;;;;20.76;56.36;100343.02;109115;1252;58481;-62
2023/05/24 06:00:45;;;;;;;12.10;6.20;;;;;;;20.85;56.13;100339.44;106187;1254;60483;-60
2023/05/24 06:03:11;;;;;;;9.10;5.30;;;;;;;20.95;55.73;100336.24;104986;1257;65653;-60
2023/05/24 06:05:38;;;;;;;9.80;5.20;;;;;;;21.05;55.49;100338.45;107067;1254;62374;-59
2023/05/24 06:08:33;;;;;;;8.60;5.80;;;;;;;21.14;55.37;100343.48;104898;1256;63700;-59
2023/05/24 06:11:00;;;;;;;9.30;5.10;;;;;;;21.25;55.09;100345.52;104910;1255;59125;-60
2023/05/24 06:13:53;;;;;;;9.90;5.90;;;;;;;21.30;54.74;100348.60;104837;1254;60475;-60
2023/05/24 06:16:20;;;;;;;8.70;4.70;;;;;;;21.36;54.45;100351.14;104902;1254;65187;-66
2023/05/24 06:19:00;;;;;;;7.00;4.10;;;;;;;21.41;53.65;100349.34;105061;1257;60482;-61
2023/05/24 06:21:32;;;;;;;9.10;4.20;;;;;;;21.45;53.53;100350.55;104687;1262;64854;-62
2023/05/24 06:24:01;;;;;;;7.10;4.20;;;;;;;21.48;53.17;100347.67;104812;1259;60549;-61
2023/05/24 06:26:29;;;;;;;7.10;4.00;;;;;;;21.51;53.10;100349.57;104996;1257;60722;-62
2023/05/24 06:28:55;;;;;;;7.10;4.70;;;;;;;21.55;52.99;100348.59;104847;1256;63957;-60
2023/05/24 06:31:22;;;;;;;11.40;4.90;;;;;;;21.57;53.20;100349.39;108315;1251;61951;-65
2023/05/24 06:33:49;;;;;;;8.90;4.70;;;;;;;21.61;53.61;100349.88;104880;1254;64226;-59
2023/05/24 06:36:40;;;;;;;7.20;4.10;;;;;;;21.71;53.66;100348.99;104812;1256;60427;-59
2023/05/24 06:39:07;;;;;;;7.90;4.50;;;;;;;21.84;53.93;100347.13;109074;1254;60320;-59
2023/05/24 06:41:36;;;;;;;8.50;4.80;;;;;;;21.97;53.83;100346.16;106349;1257;67824;-61
2023/05/24 06:44:02;;;;;;;7.20;5.40;;;;;;;22.09;53.51;100346.05;108135;1256;62302;-66
2023/05/24 06:47:05;;;;;;;9.80;5.20;;;;;;;22.20;53.26;100346.59;104829;1254;63696;-60
2023/05/24 06:49:35;;;;;;;6.50;4.40;;;;;;;22.33;53.19;100348.17;107596;1257;59252;-60
2023/05/24 06:52:02;;;;;;;8.70;4.70;;;;;;;22.42;53.03;100346.33;104451;1257;60474;-62
2023/05/24 06:54:31;;;;;;;9.50;4.60;;;;;;;22.48;52.74;100341.77;104496;1266;65605;-59
2023/05/24 06:56:58;;;;;;;7.00;4.40;;;;;;;22.56;52.42;100344.14;107502;1256;62234;-60
2023/05/24 06:59:26;;;;;;;7.50;4.90;;;;;;;22.61;52.27;100345.48;106073;1256;63997;-60
2023/05/24 07:01:56;;;;;;;10.70;4.60;;;;;;;22.67;52.49;100345.40;106235;1256;60356;-60
2023/05/24 07:04:24;;;;;;;10.00;4.60;;;;;;;22.75;52.24;100345.34;105543;1254;60536;-61
2023/05/24 07:06:51;;;;;;;6.90;4.40;;;;;;;22.81;51.35;100346.18;106999;1257;65445;-61
2023/05/24 07:09:18;;;;;;;9.10;4.40;;;;;;;22.85;50.96;100346.00;105390;1258;61716;-60
2023/05/24 07:11:46;;;;;;;11.00;5.80;;;;;;;22.90;50.96;100347.92;105426;1260;64019;-60
2023/05/24 07:14:13;;;;;;;9.80;4.80;;;;;;;22.95;51.00;100347.67;105467;1254;60450;-60
2023/05/24 07:16:39;;;;;;;6.90;4.80;;;;;;;23.02;50.72;100347.84;105331;1253;60479;-61
2023/05/24 07:19:06;;;;;;;8.30;4.60;;;;;;;23.09;50.50;100350.14;109065;1254;65677;-62
2023/05/24 07:21:34;;;;;;;8.60;4.70;;;;;;;23.14;50.08;100349.77;107502;1254;62117;-62
2023/05/24 07:24:02;;;;;;;10.70;4.40;;;;;;;23.19;50.00;100350.92;105995;1256;63689;-60
2023/05/24 07:26:30;;;;;;;8.00;5.20;;;;;;;23.26;49.84;100349.48;106619;1256;60567;-62
2023/05/24 07:28:57;;;;;;;7.00;4.30;;;;;;;23.34;49.50;100352.70;109176;1253;58702;-62
2023/05/24 07:31:25;;;;;;;7.50;4.00;;;;;;;23.41;49.26;100350.13;108990;1254;58416;-60
2023/05/24 07:33:52;;;;;;;7.40;4.00;;;;;;;23.50;48.70;100346.83;107541;1256;60532;-67
2023/05/24 07:36:20;;;;;;;6.60;3.30;;;;;;;23.59;48.18;100347.09;104892;1258;64044;-64
2023/05/24 07:38:47;;;;;;;6.50;3.30;;;;;;;23.68;47.72;100344.67;107598;1254;60153;-62
2023/05/24 07:41:14;;;;;;;5.90;3.30;;;;;;;23.78;46.84;100343.71;104997;1257;61294;-63
2023/05/24 07:43:40;;;;;;;7.00;3.40;;;;;;;23.87;46.14;100343.25;105005;1254;63746;-61
2023/05/24 07:46:09;;;;;;;8.30;3.80;;;;;;;23.93;45.86;100346.83;104963;1256;61460;-60
2023/05/24 07:48:36;;;;;;;8.90;3.60;;;;;;;23.99;45.64;100346.31;107218;1257;64037;-63
2023/05/24 07:51:03;;;;;;;5.90;3.80;;;;;;;24.02;45.11;100348.16;104985;1252;60565;-62
2023/05/24 07:53:30;;;;;;;6.30;3.60;;;;;;;24.04;45.28;100349.69;104972;1257;60485;-63
2023/05/24 07:55:57;;;;;;;9.30;4.20;;;;;;;24.10;45.91;100354.42;109099;1253;65026;-61
2023/05/24 07:58:24;;;;;;;7.60;3.80;;;;;;;24.17;45.40;100356.17;109139;1254;61628;-61
2023/05/24 08:00:51;;;;;;;11.40;4.10;;;;;;;24.21;45.12;100356.45;105449;1257;64158;-61
2023/05/24 08:03:17;;;;;;;11.60;4.70;;;;;;;24.27;45.28;100356.98;105434;1257;60581;-59
2023/05/24 08:05:44;;;;;;;6.40;4.20;;;;;;;24.34;45.08;100357.95;105414;1257;59502;-61
2023/05/24 08:08:28;;;;;;;8.10;4.10;;;;;;;24.33;44.23;100356.71;105423;1257;65236;-61
2023/05/24 08:10:55;;;;;;;7.30;3.70;;;;;;;24.28;44.21;100354.38;106177;1254;61717;-60
2023/05/24 08:13:22;;;;;;;9.40;3.80;;;;;;;24.23;44.22;100356.35;106198;1263;63734;-60
2023/05/24 08:15:49;;;;;;;8.90;4.00;;;;;;;24.20;44.28;100359.30;105483;1257;60322;-60
2023/05/24 08:18:16;;;;;;;7.30;3.70;;;;;;;24.16;44.10;100357.29;108620;1255;59249;-60
2023/05/24 08:20:42;;;;;;;6.70;3.50;;;;;;;24.17;44.74;100357.00;105427;1257;65652;-60
2023/05/24 08:23:46;;;;;;;7.80;3.60;;;;;;;24.18;44.31;100358.02;105392;1255;61626;-60
2023/05/24 08:26:15;;;;;;;6.80;3.70;;;;;;;24.17;44.21;100362.40;105387;1257;64940;-61
2023/05/24 08:28:42;;;;;;;10.30;4.00;;;;;;;24.18;44.43;100356.70;107310;1256;60581;-61
2023/05/24 08:31:08;;;;;;;9.20;3.50;;;;;;;24.22;44.09;100353.17;105406;1256;60463;-59
2023/05/24 08:33:36;;;;;;;6.50;3.30;;;;;;;24.28;43.43;100350.42;106715;1257;63836;-60
2023/05/24 08:36:02;;;;;;;7.40;3.10;;;;;;;24.38;42.69;100344.35;105507;1256;61765;-61
2023/05/24 08:38:29;;;;;;;7.80;3.90;;;;;;;24.49;42.70;100339.42;105428;1257;64969;-60
2023/05/24 08:40:56;;;;;;;9.10;3.70;;;;;;;24.61;42.84;100337.65;106008;1256;60533;-58
2023/05/24 08:43:23;;;;;;;11.90;3.70;;;;;;;24.70;42.24;100338.01;105467;1256;60469;-61
2023/05/24 08:45:50;;;;;;;5.60;3.30;;;;;;;24.77;41.43;100335.80;107871;1256;65089;-61
2023/05/24 08:48:17;;;;;;;7.50;3.50;;;;;;;24.82;41.25;100332.17;106296;1257;61693;-61
2023/05/24 08:50:44;;;;;;;6.80;3.30;;;;;;;24.87;41.62;100329.27;105396;1257;63758;-61
2023/05/24 08:53:11;;;;;;;5.90;3.50;;;;;;;24.94;41.98;100330.18;105155;1260;60885;-61
2023/05/24 08:55:38;;;;;;;8.00;3.50;;;;;;;24.99;41.37;100331.20;106282;1254;59196;-60
2023/05/24 08:58:06;;;;;;;6.40;3.20;;;;;;;25.04;41.72;100334.32;105525;1255;63889;-60
2023/05/24 09:00:33;;;;;;;6.40;3.30;;;;;;;25.11;41.22;100336.96;105398;1257;61642;-59
2023/05/24 09:03:03;;;;;;;4.80;3.20;;;;;;;25.17;40.70;100331.48;108097;1259;65173;-63
2023/05/24 09:05:37;;;;;;;6.10;2.90;;;;;;;25.27;40.86;100333.36;104000;1257;60510;-60
2023/05/24 09:08:04;;;;;;;11.40;3.00;;;;;;;25.39;40.30;100334.54;106358;1254;60494;-60
2023/05/24 09:10:32;;;;;;;9.90;3.80;;;;;;;25.47;39.97;100334.63;105996;1255;64907;-60
2023/05/24 09:13:19;;;;;;;10.60;3.50;;;;;;;25.47;40.28;100333.84;105441;1257;61664;-61
2023/05/24 09:15:46;;;;;;;6.20;3.00;;;;;;;25.45;40.38;100333.70;107022;1257;65835;-61
2023/05/24 09:18:13;;;;;;;5.60;3.10;;;;;;;25.44;40.52;100334.38;105587;1259;60478;-62
2023/05/24 09:20:41;;;;;;;5.60;3.10;;;;;;;25.43;39.96;100333.55;105499;1258;60469;-60
2023/05/24 09:23:08;;;;;;;6.40;3.20;;;;;;;25.43;39.91;100330.64;106611;1256;65661;-61
2023/05/24 09:25:35;;;;;;;7.10;3.20;;;;;;;25.49;40.03;100333.65;109128;1254;61667;-62
2023/05/24 09:28:40;;;;;;;9.00;3.30;;;;;;;25.54;40.47;100333.40;105795;1257;64817;-61
2023/05/24 09:31:57;;;;;;;7.20;3.20;;;;;;;25.60;39.97;100327.27;104820;1260;60549;-61
2023/05/24 09:34:25;;;;;;;7.10;3.10;;;;;;;25.59;39.58;100329.08;104875;1263;60582;-61
2023/05/24 09:36:52;;;;;;;7.50;3.50;;;;;;;25.68;39.58;100328.52;104962;1259;65479;-61
2023/05/24 09:39:21;;;;;;;7.70;3.10;;;;;;;25.65;39.43;100332.33;105138;1258;61941;-61
2023/05/24 09:41:56;;;;;;;8.10;3.00;;;;;;;25.61;39.52;100332.75;105158;1264;64121;-63
2023/05/24 09:44:26;;;;;;;5.40;2.70;;;;;;;25.66;39.31;100334.16;105843;1257;60511;-60
2023/05/24 09:46:57;;;;;;;9.30;3.40;;;;;;;25.76;39.09;100332.58;105147;1260;60466;-58
2023/05/24 09:49:24;;;;;;;6.80;3.10;;;;;;;25.93;39.25;100330.01;106503;1262;65067;-60
2023/05/24 09:51:51;;;;;;;6.90;2.90;;;;;;;26.09;38.62;100330.48;108215;1260;63016;-60
2023/05/24 09:54:19;;;;;;;7.10;2.60;;;;;;;26.22;38.28;100332.94;105080;1262;64768;-60
2023/05/24 09:56:46;;;;;;;6.30;3.00;;;;;;;26.35;37.69;100332.80;106024;1263;60524;-60
2023/05/24 09:59:12;;;;;;;6.20;2.90;;;;;;;26.45;37.92;100333.80;105320;1260;60600;-60
2023/05/24 10:01:39;;;;;;;5.70;2.80;;;;;;;26.55;37.81;100331.03;108745;1258;66495;-62
2023/05/24 10:04:06;;;;;;;6.80;2.90;;;;;;;26.73;37.22;100335.14;108976;1254;71792;-60
2023/05/24 10:06:37;;;;;;;7.30;2.60;;;;;;;26.82;36.64;100335.54;106640;1258;63524;-61
2023/05/24 10:09:08;;;;;;;7.40;3.00;;;;;;;26.92;36.31;100335.60;106540;1254;60371;-60
2023/05/24 10:11:38;;;;;;;6.50;3.10;;;;;;;27.01;36.49;100338.70;109177;1254;58196;-63
2023/05/24 10:14:08;;;;;;;4.80;2.30;;;;;;;27.09;36.24;100335.59;108791;1254;65590;-61
2023/05/24 10:16:37;;;;;;;8.40;3.30;;;;;;;27.12;36.13;100336.61;105815;1255;61736;-60
2023/05/24 10:19:04;;;;;;;6.60;2.50;;;;;;;27.07;36.25;100338.69;109093;1254;64569;-60
2023/05/24 10:21:32;;;;;;;7.30;3.60;;;;;;;26.98;36.99;100341.76;109030;1255;58465;-60
2023/05/24 10:23:58;;;;;;;5.50;2.70;;;;;;;26.85;37.74;100350.83;108974;1254;59179;-60
2023/05/24 10:26:25;;;;;;;6.00;3.30;;;;;;;26.67;39.02;100349.60;109045;1254;63759;-59
2023/05/24 10:28:57;;;;;;;6.80;3.60;;;;;;;26.37;39.52;100348.13;108965;1254;60463;-60
2023/05/24 10:31:26;;;;;;;6.50;2.80;;;;;;;26.08;39.66;100349.23;108950;1254;64553;-59
2023/05/24 10:34:03;;;;;;;9.70;2.70;;;;;;;25.78;39.14;100349.95;106753;1253;60596;-59
2023/05/24 10:36:36;;;;;;;8.10;2.80;;;;;;;25.52;38.43;100352.57;105747;1259;60450;-60
2023/05/24 10:39:15;;;;;;;6.50;3.30;;;;;;;25.29;40.59;100355.66;105851;1258;64997;-60
2023/05/24 10:41:45;;;;;;;9.90;3.20;;;;;;;24.93;43.84;100357.95;106457;1267;62125;-63
2023/05/24 10:44:13;;;;;;;10.30;2.80;;;;;;;24.47;45.78;100365.71;105060;1262;62742;-60
2023/05/24 10:47:12;;;;;;;8.20;3.00;;;;;;;24.00;45.51;100374.70;105231;1255;61843;-60
2023/05/24 10:49:53;;;;;;;10.70;4.50;;;;;;;23.53;46.70;100385.60;105533;1260;60477;-63
2023/05/24 10:52:41;;;;;;;8.50;3.60;;;;;;;23.19;48.86;100387.96;104758;1264;65187;-65
2023/05/24 10:55:12;;;;;;;9.70;4.00;;;;;;;22.94;50.37;100386.84;105977;1254;61788;-67
2023/05/24 10:57:38;;;;;;;8.10;3.70;;;;;;;22.72;50.15;100388.11;105874;1257;63961;-69
2023/05/24 11:00:41;;;;;;;6.50;3.00;;;;;;;22.54;50.01;100392.27;105727;1254;60388;-70
2023/05/24 11:03:09;;;;;;;6.70;3.40;;;;;;;22.38;49.84;100396.80;105925;1254;62323;-69
2023/05/24 11:05:52;;;;;;;5.90;3.00;;;;;;;22.24;49.73;100399.89;106443;1254;65138;-71
2023/05/24 11:08:36;;;;;;;7.10;3.00;;;;;;;22.15;49.72;100403.52;106148;1260;61643;-71
2023/05/24 11:11:12;;;;;;;7.30;2.70;;;;;;;22.14;50.16;100407.46;105981;1254;62848;-70
2023/05/24 11:13:43;;;;;;;9.70;3.30;;;;;;;22.16;51.47;100407.06;106535;1254;60467;-71
2023/05/24 11:16:30;;;;;;;6.50;2.60;;;;;;;22.16;53.09;100406.89;106425;1254;60441;-74
2023/05/24 11:18:57;;;;;;;5.40;2.60;;;;;;;22.14;54.34;100403.20;106488;1254;65981;-75
2023/05/24 11:21:25;;;;;;;8.40;3.00;;;;;;;22.17;55.00;100401.83;106614;1254;61663;-75
2023/05/24 11:23:52;;;;;;;5.80;2.60;;;;;;;22.23;55.73;100405.58;106558;1254;63916;-73
2023/05/24 11:26:20;;;;;;;6.30;2.90;;;;;;;22.27;56.31;100400.52;107610;1254;59346;-70
2023/05/24 11:28:47;;;;;;;8.80;3.10;;;;;;;22.38;57.71;100401.36;106389;1252;60466;-72
2023/05/24 11:31:13;;;;;;;6.80;2.80;;;;;;;22.50;58.37;100402.69;106403;1254;65784;-70
2023/05/24 11:33:41;;;;;;;6.30;3.40;;;;;;;22.60;58.63;100398.52;106594;1254;64722;-70
2023/05/24 11:36:08;;;;;;;6.40;3.20;;;;;;;22.69;58.72;100397.81;107308;1254;64043;-71